createdAt,value
2018-12-05T00:01:26.735Z,29.13
2018-12-05T00:03:55.451Z,27.00
2018-12-05T00:06:24.020Z,24.77
2018-12-05T00:08:52.531Z,32.30
2018-12-05T00:11:21.104Z,25.80
2018-12-05T00:13:49.673Z,26.53
2018-12-05T00:16:18.436Z,26.00
2018-12-05T00:18:47.108Z,25.87
2018-12-05T00:21:15.447Z,28.83
2018-12-05T00:23:44.205Z,32.03
2018-12-05T00:26:12.649Z,31.00
2018-12-05T00:28:41.149Z,32.60
2018-12-05T00:31:09.722Z,34.70
2018-12-05T00:33:38.462Z,39.10
2018-12-05T00:36:07.184Z,33.83
2018-12-05T00:38:35.890Z,31.87
2018-12-05T00:41:04.654Z,28.77
2018-12-05T00:43:33.406Z,40.67
2018-12-05T00:46:02.002Z,39.00
2018-12-05T00:48:31.126Z,35.90
2018-12-05T00:50:59.781Z,42.63
2018-12-05T00:53:28.954Z,36.87
2018-12-05T00:55:57.339Z,41.97
2018-12-05T00:58:26.427Z,31.70
2018-12-05T01:00:55.570Z,47.00
2018-12-05T01:03:24.797Z,34.47
2018-12-05T01:05:53.367Z,39.60
2018-12-05T01:08:22.107Z,41.83
2018-12-05T01:10:51.434Z,46.10
2018-12-05T01:13:20.208Z,45.90
2018-12-05T01:15:49.018Z,54.27
2018-12-05T01:18:18.262Z,48.77
2018-12-05T01:20:47.066Z,401.57
2018-12-05T01:25:44.692Z,153.60
2018-12-05T01:28:13.667Z,68.47
2018-12-05T01:30:42.176Z,550.03
2018-12-05T01:33:10.731Z,281.17
2018-12-05T01:35:39.307Z,387.23
2018-12-05T01:38:07.901Z,168.43
2018-12-05T01:40:36.701Z,81.43
2018-12-05T01:43:05.954Z,130.67
2018-12-05T01:45:35.046Z,89.03
2018-12-05T01:48:03.874Z,94.47
2018-12-05T01:50:32.923Z,71.27
2018-12-05T01:53:01.588Z,120.23
2018-12-05T01:55:32.808Z,89.33
2018-12-05T01:58:02.415Z,77.77
2018-12-05T02:00:31.274Z,106.50
2018-12-05T02:03:00.041Z,133.23
2018-12-05T02:05:28.644Z,160.03
2018-12-05T02:07:57.426Z,254.73
2018-12-05T02:10:26.527Z,80.60
2018-12-05T02:12:55.826Z,142.60
2018-12-05T02:15:25.359Z,173.00
2018-12-05T02:17:54.644Z,148.33
2018-12-05T02:20:23.890Z,75.70
2018-12-05T02:22:52.237Z,125.47
2018-12-05T02:25:20.975Z,193.20
2018-12-05T02:27:49.489Z,136.47
2018-12-05T02:30:18.162Z,225.57
2018-12-05T02:32:47.009Z,235.93
2018-12-05T02:35:15.534Z,422.13
2018-12-05T02:37:44.316Z,81.63
2018-12-05T02:40:13.125Z,261.60
2018-12-05T02:42:42.234Z,254.47
2018-12-05T02:45:10.705Z,232.57
2018-12-05T02:47:39.492Z,189.53
2018-12-05T02:50:08.104Z,184.67
2018-12-05T02:52:37.229Z,210.60
2018-12-05T02:55:06.242Z,159.10
2018-12-05T02:57:34.696Z,143.23
2018-12-05T03:00:04.795Z,214.53
2018-12-05T03:02:33.555Z,125.60
2018-12-05T03:05:02.412Z,166.20
2018-12-05T03:07:31.627Z,176.27
2018-12-05T03:10:00.061Z,192.47
2018-12-05T03:12:28.704Z,188.50
2018-12-05T03:14:59.000Z,365.90
2018-12-05T03:17:27.772Z,523.17
2018-12-05T03:19:56.428Z,166.20
2018-12-05T03:22:25.217Z,291.80
2018-12-05T03:24:54.109Z,375.47
2018-12-05T03:27:22.984Z,214.33
2018-12-05T03:29:52.176Z,186.90
2018-12-05T03:32:20.537Z,224.97
2018-12-05T03:34:49.319Z,216.13
2018-12-05T03:37:18.111Z,109.57
2018-12-05T03:39:47.042Z,146.63
2018-12-05T03:42:15.706Z,171.07
2018-12-05T03:44:44.228Z,107.03
2018-12-05T03:47:12.862Z,129.53
2018-12-05T03:49:44.882Z,94.47
2018-12-05T03:52:14.102Z,96.07
2018-12-05T03:54:42.734Z,55.23
2018-12-05T03:57:11.743Z,45.93
2018-12-05T03:59:41.201Z,141.23
2018-12-05T04:02:10.784Z,57.17
2018-12-05T04:04:39.449Z,57.20
2018-12-05T04:07:08.744Z,39.13
2018-12-05T04:09:37.832Z,48.60
2018-12-05T04:12:07.126Z,46.00
2018-12-05T04:14:36.095Z,40.80
2018-12-05T04:17:04.595Z,39.53
2018-12-05T04:19:33.687Z,37.93
2018-12-05T04:22:02.246Z,39.87
2018-12-05T04:24:30.757Z,35.30
2018-12-05T04:26:59.429Z,34.07
2018-12-05T04:29:28.149Z,37.00
2018-12-05T04:31:56.709Z,29.97
2018-12-05T04:34:25.202Z,30.00
2018-12-05T04:36:53.473Z,35.00
2018-12-05T04:39:22.074Z,32.50
2018-12-05T04:41:50.557Z,34.97
2018-12-05T04:44:20.358Z,33.37
2018-12-05T04:46:48.706Z,34.30
2018-12-05T04:49:17.691Z,36.60
2018-12-05T04:51:46.187Z,37.37
2018-12-05T04:54:15.928Z,35.33
2018-12-05T04:56:44.640Z,32.37
2018-12-05T04:59:13.718Z,37.43
2018-12-05T05:01:42.768Z,32.73
2018-12-05T05:04:12.642Z,30.50
2018-12-05T05:06:42.071Z,28.40
2018-12-05T05:09:11.045Z,36.53
2018-12-05T05:11:39.619Z,34.20
2018-12-05T05:14:07.996Z,35.07
2018-12-05T05:16:36.413Z,37.03
2018-12-05T05:19:05.201Z,38.70
2018-12-05T05:21:34.438Z,37.77
2018-12-05T05:24:03.100Z,37.70
2018-12-05T05:26:31.493Z,39.50
2018-12-05T05:29:00.391Z,48.67
2018-12-05T05:31:29.632Z,35.27
2018-12-05T05:33:58.304Z,33.87
2018-12-05T05:36:27.218Z,30.80
2018-12-05T05:38:56.318Z,29.77
2018-12-05T05:41:24.722Z,34.63
2018-12-05T05:43:53.331Z,30.60
2018-12-05T05:46:21.818Z,32.77
2018-12-05T05:48:50.437Z,33.00
2018-12-05T05:51:19.282Z,37.10
2018-12-05T05:53:48.284Z,43.77
2018-12-05T05:56:16.555Z,42.00
2018-12-05T05:58:45.647Z,44.83
2018-12-05T06:01:14.828Z,32.13
2018-12-05T06:03:43.472Z,32.23
2018-12-05T06:06:12.032Z,37.27
2018-12-05T06:08:40.997Z,34.73
2018-12-05T06:11:10.159Z,35.30
2018-12-05T06:13:40.077Z,36.20
2018-12-05T06:16:08.657Z,45.33
2018-12-05T06:18:37.390Z,44.97
2018-12-05T06:21:06.184Z,40.57
2018-12-05T06:23:36.526Z,47.60
2018-12-05T06:26:05.043Z,50.93
2018-12-05T06:28:33.905Z,38.00
2018-12-05T06:31:03.531Z,37.37
2018-12-05T06:33:32.004Z,39.00
2018-12-05T06:36:00.855Z,40.43
2018-12-05T06:38:29.736Z,31.43
2018-12-05T06:40:58.675Z,33.10
2018-12-05T06:43:27.709Z,38.23
2018-12-05T06:45:56.924Z,39.73
2018-12-05T06:48:25.431Z,37.60
2018-12-05T06:50:54.219Z,42.90
2018-12-05T06:53:23.362Z,44.30
2018-12-05T06:55:52.252Z,40.40
2018-12-05T06:58:20.725Z,43.10
2018-12-05T07:00:49.505Z,40.40
2018-12-05T07:03:18.201Z,40.03
2018-12-05T07:05:47.028Z,36.10
2018-12-05T07:08:16.198Z,44.13
2018-12-05T07:10:44.757Z,32.57
2018-12-05T07:13:13.596Z,34.70
2018-12-05T07:15:42.537Z,34.17
2018-12-05T07:18:11.270Z,36.27
2018-12-05T07:20:39.765Z,36.27
2018-12-05T07:23:08.606Z,36.50
2018-12-05T07:25:37.307Z,30.93
2018-12-05T07:28:05.754Z,39.43
2018-12-05T07:30:34.714Z,32.50
2018-12-05T07:33:03.113Z,31.20
2018-12-05T07:35:31.946Z,35.30
2018-12-05T07:38:00.503Z,29.13
2018-12-05T07:40:29.261Z,30.30
2018-12-05T07:42:57.680Z,32.17
2018-12-05T07:45:26.311Z,32.27
2018-12-05T07:47:54.604Z,32.57
2018-12-05T07:50:23.119Z,32.33
2018-12-05T07:52:52.340Z,31.17
2018-12-05T07:55:21.578Z,34.40
2018-12-05T07:57:50.608Z,32.53
2018-12-05T08:00:19.454Z,29.97
2018-12-05T08:02:48.678Z,33.53
2018-12-05T08:05:17.092Z,24.77
2018-12-05T08:07:46.266Z,28.77
2018-12-05T08:10:15.197Z,31.97
2018-12-05T08:12:43.729Z,31.97
2018-12-05T08:15:13.041Z,26.83
2018-12-05T08:17:41.317Z,25.00
2018-12-05T08:20:10.354Z,27.03
2018-12-05T08:22:38.880Z,23.30
2018-12-05T08:25:07.966Z,25.40
2018-12-05T08:27:36.217Z,27.23
2018-12-05T08:30:06.390Z,24.10
2018-12-05T08:32:35.831Z,24.43
2018-12-05T08:35:05.450Z,24.73
2018-12-05T08:37:33.759Z,26.03
2018-12-05T08:40:03.776Z,23.63
2018-12-05T08:42:32.377Z,23.90
2018-12-05T08:45:00.985Z,27.03
2018-12-05T08:47:33.788Z,26.20
2018-12-05T08:50:00.723Z,23.10
2018-12-05T08:52:29.225Z,27.83
2018-12-05T08:54:57.600Z,24.57
2018-12-05T08:57:25.991Z,27.83
2018-12-05T08:59:54.825Z,29.17
2018-12-05T09:02:23.586Z,24.17
2018-12-05T09:04:52.247Z,20.83
2018-12-05T09:07:21.119Z,24.10
2018-12-05T09:09:49.603Z,23.60
2018-12-05T09:12:18.627Z,25.73
2018-12-05T09:14:47.353Z,22.43
2018-12-05T09:17:16.286Z,23.13
2018-12-05T09:19:44.657Z,50.77
2018-12-05T09:22:12.959Z,21.40
2018-12-05T09:24:41.239Z,21.37
2018-12-05T09:27:09.561Z,17.97
2018-12-05T09:29:37.830Z,21.13
2018-12-05T09:32:06.515Z,21.83
2018-12-05T09:34:35.054Z,16.77
2018-12-05T09:37:03.857Z,17.63
2018-12-05T09:39:32.247Z,17.30
2018-12-05T09:42:00.729Z,19.97
2018-12-05T09:44:29.315Z,17.83
2018-12-05T09:46:57.768Z,20.67
2018-12-05T09:49:26.380Z,20.23
2018-12-05T09:51:55.239Z,18.40
2018-12-05T09:54:23.753Z,20.03
2018-12-05T09:56:52.485Z,20.80
2018-12-05T09:59:20.635Z,20.60
2018-12-05T10:01:49.564Z,19.80
2018-12-05T10:04:18.126Z,20.00
2018-12-05T10:06:46.496Z,22.23
2018-12-05T10:09:14.724Z,20.80
2018-12-05T10:11:42.944Z,21.00
2018-12-05T10:14:11.468Z,21.57
2018-12-05T10:16:40.183Z,21.60
2018-12-05T10:19:08.980Z,20.10
2018-12-05T10:21:37.461Z,19.63
2018-12-05T10:24:05.696Z,16.90
2018-12-05T10:26:34.314Z,19.70
2018-12-05T10:29:03.036Z,21.70
2018-12-05T10:31:31.765Z,20.17
2018-12-05T10:34:00.098Z,22.80
2018-12-05T10:36:28.895Z,23.37
2018-12-05T10:38:57.163Z,20.80
2018-12-05T10:41:25.314Z,20.53
2018-12-05T10:43:53.658Z,20.13
2018-12-05T10:46:22.185Z,22.30
2018-12-05T10:48:50.908Z,22.20
2018-12-05T10:51:19.287Z,20.33
2018-12-05T10:53:47.571Z,19.83
2018-12-05T10:56:15.778Z,20.27
2018-12-05T10:58:43.934Z,19.53
2018-12-05T11:01:17.994Z,21.37
2018-12-05T11:03:46.877Z,18.90
2018-12-05T11:06:19.629Z,20.67
2018-12-05T11:08:54.031Z,22.60
2018-12-05T11:11:28.046Z,20.03
2018-12-05T11:14:01.915Z,19.90
2018-12-05T11:16:36.054Z,22.70
2018-12-05T11:20:12.248Z,19.30
2018-12-05T11:22:46.369Z,17.13
2018-12-05T11:25:18.017Z,18.70
2018-12-05T11:27:46.397Z,19.40
2018-12-05T11:30:15.100Z,20.77
2018-12-05T11:32:43.603Z,20.33
2018-12-05T11:35:11.960Z,20.10
2018-12-05T11:37:40.198Z,19.70
2018-12-05T11:40:08.801Z,20.10
2018-12-05T11:42:37.045Z,21.53
2018-12-05T11:46:35.444Z,21.33
2018-12-05T11:49:13.679Z,21.00
2018-12-05T11:51:42.256Z,18.90
2018-12-05T11:54:10.515Z,20.37
2018-12-05T11:56:38.815Z,20.17
2018-12-05T11:59:07.511Z,19.60
2018-12-05T12:01:35.607Z,21.37
2018-12-05T12:04:04.475Z,21.57
2018-12-05T12:06:32.607Z,19.07
2018-12-05T12:09:00.915Z,18.00
2018-12-05T12:11:29.061Z,18.80
2018-12-05T12:13:57.428Z,22.40
2018-12-05T12:16:25.704Z,18.77
2018-12-05T12:18:53.931Z,19.87
2018-12-05T12:21:22.187Z,18.93
2018-12-05T12:23:50.688Z,21.43
2018-12-05T12:26:18.991Z,19.67
2018-12-05T12:28:47.510Z,19.30
2018-12-05T12:31:16.297Z,21.00
2018-12-05T12:33:44.636Z,24.00
2018-12-05T12:36:12.924Z,19.20
2018-12-05T12:38:41.243Z,19.50
2018-12-05T12:41:09.842Z,19.70
2018-12-05T12:43:38.466Z,19.57
2018-12-05T12:46:06.865Z,17.50
2018-12-05T12:48:35.337Z,19.73
2018-12-05T12:51:03.895Z,16.23
2018-12-05T12:53:32.350Z,18.13
2018-12-05T12:56:00.723Z,17.40
2018-12-05T12:58:29.128Z,21.00
2018-12-05T13:00:57.439Z,17.83
2018-12-05T13:03:26.257Z,15.57
2018-12-05T13:05:54.790Z,16.83
2018-12-05T13:08:23.375Z,16.70
2018-12-05T13:10:51.871Z,16.53
2018-12-05T13:13:20.363Z,15.93
2018-12-05T13:15:48.849Z,14.87
2018-12-05T13:18:17.326Z,15.37
2018-12-05T13:20:45.977Z,16.57
2018-12-05T13:23:14.445Z,16.87
2018-12-05T13:25:42.939Z,16.20
2018-12-05T13:28:11.404Z,17.17
2018-12-05T13:30:39.956Z,17.50
2018-12-05T13:33:08.049Z,17.27
2018-12-05T13:35:36.469Z,16.23
2018-12-05T13:38:04.638Z,17.67
2018-12-05T13:40:32.977Z,20.07
2018-12-05T13:43:01.139Z,17.33
2018-12-05T13:45:29.686Z,16.10
2018-12-05T13:47:58.561Z,18.07
2018-12-05T13:50:26.707Z,16.20
2018-12-05T13:52:55.187Z,16.67
2018-12-05T13:55:23.383Z,16.87
2018-12-05T13:57:51.934Z,19.33
2018-12-05T14:00:20.307Z,17.63
2018-12-05T14:02:48.456Z,18.87
2018-12-05T14:05:16.599Z,16.43
2018-12-05T14:07:44.843Z,18.43
2018-12-05T14:10:13.036Z,22.73
2018-12-05T14:12:41.435Z,16.77
2018-12-05T14:15:10.824Z,21.10
2018-12-05T14:17:39.033Z,18.13
2018-12-05T14:20:08.555Z,17.60
2018-12-05T14:22:36.898Z,15.07
2018-12-05T14:25:07.041Z,17.50
2018-12-05T14:27:35.517Z,16.63
2018-12-05T14:30:04.671Z,17.37
2018-12-05T14:32:32.892Z,16.97
2018-12-05T14:35:01.243Z,17.07
2018-12-05T14:37:29.770Z,18.53
2018-12-05T14:39:58.347Z,16.83
2018-12-05T14:42:26.598Z,16.20
2018-12-05T14:44:55.104Z,17.60
2018-12-05T14:47:23.266Z,14.83
2018-12-05T14:49:51.435Z,14.47
2018-12-05T14:52:20.290Z,15.40
2018-12-05T14:54:48.595Z,15.27
2018-12-05T14:57:17.483Z,16.87
2018-12-05T14:59:45.745Z,15.33
2018-12-05T15:02:14.600Z,17.10
2018-12-05T15:04:42.867Z,18.27
2018-12-05T15:07:11.569Z,15.60
2018-12-05T15:09:39.812Z,14.50
2018-12-05T15:12:07.961Z,15.30
2018-12-05T15:14:36.479Z,15.10
2018-12-05T15:17:05.016Z,13.63
2018-12-05T15:19:33.226Z,14.03
2018-12-05T15:22:01.649Z,14.30
2018-12-05T15:24:30.041Z,17.00
2018-12-05T15:26:58.369Z,17.23
2018-12-05T15:30:30.689Z,16.30
2018-12-05T15:32:58.946Z,15.17
2018-12-05T15:35:27.434Z,17.43
2018-12-05T15:37:55.619Z,16.00
2018-12-05T15:40:23.906Z,14.50
2018-12-05T15:42:52.246Z,15.30
2018-12-05T15:45:21.601Z,18.43
2018-12-05T15:47:50.022Z,15.10
2018-12-05T15:50:18.209Z,16.30
2018-12-05T15:52:46.384Z,14.57
2018-12-05T15:55:14.653Z,16.63
2018-12-05T15:57:42.798Z,13.97
2018-12-05T16:00:11.131Z,16.93
2018-12-05T16:02:39.393Z,14.30
2018-12-05T16:07:46.535Z,19.50
2018-12-05T16:10:14.696Z,14.37
2018-12-05T16:12:42.904Z,14.47
2018-12-05T16:15:11.283Z,15.20
2018-12-05T16:17:39.477Z,17.50
2018-12-05T16:20:07.753Z,14.50
2018-12-05T16:22:36.049Z,14.60
2018-12-05T16:25:04.597Z,14.60
2018-12-05T16:27:33.121Z,15.93
2018-12-05T16:30:01.493Z,14.13
2018-12-05T16:32:29.927Z,14.87
2018-12-05T16:34:58.253Z,15.30
2018-12-05T16:37:26.381Z,14.30
2018-12-05T16:39:54.631Z,17.10
2018-12-05T16:42:22.779Z,16.30
2018-12-05T16:44:50.901Z,16.60
2018-12-05T16:47:19.142Z,14.60
2018-12-05T16:49:47.601Z,14.60
2018-12-05T16:52:16.159Z,13.37
2018-12-05T16:54:44.771Z,14.83
2018-12-05T16:57:13.200Z,14.77
2018-12-05T16:59:41.631Z,15.07
2018-12-05T17:02:10.089Z,14.60
2018-12-05T17:04:38.261Z,15.67
2018-12-05T17:07:06.887Z,16.73
2018-12-05T17:09:35.307Z,14.77
2018-12-05T17:12:03.933Z,13.80
2018-12-05T17:14:32.330Z,13.83
2018-12-05T17:17:00.819Z,15.60
2018-12-05T17:19:29.553Z,15.17
2018-12-05T17:21:58.925Z,16.70
2018-12-05T17:24:27.386Z,16.73
2018-12-05T17:26:56.150Z,21.63
2018-12-05T17:29:24.563Z,16.77
2018-12-05T17:31:52.735Z,17.80
2018-12-05T17:34:20.786Z,15.53
2018-12-05T17:36:49.194Z,15.57
2018-12-05T17:39:17.318Z,16.03
2018-12-05T17:41:45.791Z,15.40
2018-12-05T17:44:14.232Z,14.60
2018-12-05T17:46:42.624Z,16.33
2018-12-05T17:49:10.925Z,15.33
2018-12-05T17:51:39.019Z,15.87
2018-12-05T17:54:14.585Z,18.10
2018-12-05T17:56:38.234Z,17.73
2018-12-05T17:59:06.556Z,21.27
2018-12-05T18:01:34.799Z,17.53
2018-12-05T18:04:03.028Z,21.07
2018-12-05T18:06:31.110Z,23.47
2018-12-05T18:08:59.241Z,29.10
2018-12-05T18:11:27.516Z,34.93
2018-12-05T18:13:55.847Z,28.87
2018-12-05T18:16:24.256Z,32.07
2018-12-05T18:18:52.551Z,24.07
2018-12-05T18:21:20.643Z,20.03
2018-12-05T18:23:49.091Z,26.73
2018-12-05T18:26:17.377Z,21.57
2018-12-05T18:28:45.578Z,17.40
2018-12-05T18:31:13.717Z,21.63
2018-12-05T18:33:42.335Z,25.33
2018-12-05T18:36:10.558Z,18.57
2018-12-05T18:38:38.693Z,18.73
2018-12-05T18:41:07.867Z,17.77
2018-12-05T18:43:36.099Z,18.23
2018-12-05T18:46:04.350Z,20.77
2018-12-05T18:48:32.658Z,20.97
2018-12-05T18:51:01.031Z,21.87
2018-12-05T18:53:29.288Z,22.23
2018-12-05T18:55:57.507Z,20.33
2018-12-05T18:58:25.760Z,20.77
2018-12-05T19:00:53.971Z,20.53
2018-12-05T19:03:25.803Z,25.90
2018-12-05T19:05:54.083Z,23.73
2018-12-05T19:08:22.241Z,23.87
2018-12-05T19:10:50.388Z,26.33
2018-12-05T19:13:18.786Z,24.90
2018-12-05T19:15:47.252Z,21.20
2018-12-05T19:18:16.121Z,20.93
2018-12-05T19:20:44.217Z,28.37
2018-12-05T19:23:12.288Z,25.53
2018-12-05T19:25:40.429Z,22.27
2018-12-05T19:28:09.026Z,25.73
2018-12-05T19:30:37.357Z,23.73
2018-12-05T19:33:05.685Z,21.97
2018-12-05T19:35:34.612Z,20.57
2018-12-05T19:38:02.802Z,22.23
2018-12-05T19:40:31.036Z,21.53
2018-12-05T19:42:59.273Z,19.03
2018-12-05T19:45:27.723Z,19.67
2018-12-05T19:47:55.964Z,21.27
2018-12-05T19:50:25.329Z,24.03
2018-12-05T19:52:54.212Z,27.40
2018-12-05T19:55:27.175Z,21.67
2018-12-05T19:57:56.412Z,20.60
2018-12-05T20:00:25.247Z,19.97
2018-12-05T20:02:53.704Z,19.53
2018-12-05T20:05:22.780Z,17.40
2018-12-05T20:07:51.176Z,17.67
2018-12-05T20:10:19.379Z,19.30
2018-12-05T20:12:53.144Z,19.07
2018-12-05T20:15:28.596Z,20.70
2018-12-05T20:17:56.961Z,17.70
2018-12-05T20:20:25.236Z,20.47
2018-12-05T20:22:53.984Z,20.17
2018-12-05T20:25:22.391Z,21.70
2018-12-05T20:27:50.798Z,20.07
2018-12-05T20:30:18.994Z,19.73
2018-12-05T20:32:47.899Z,20.77
2018-12-05T20:35:16.090Z,23.57
2018-12-05T20:37:44.258Z,23.10
2018-12-05T20:40:12.365Z,21.47
2018-12-05T20:42:40.464Z,25.03
2018-12-05T20:45:08.734Z,25.83
2018-12-05T20:47:37.262Z,23.90
2018-12-05T20:50:05.802Z,21.10
2018-12-05T20:52:34.598Z,20.43
2018-12-05T20:55:02.730Z,21.27
2018-12-05T20:57:31.888Z,19.80
2018-12-05T21:00:00.087Z,22.20
2018-12-05T21:02:28.442Z,19.17
2018-12-05T21:04:56.591Z,20.13
2018-12-05T21:07:24.931Z,20.23
2018-12-05T21:09:53.025Z,23.30
2018-12-05T21:12:21.340Z,20.53
2018-12-05T21:14:50.010Z,21.20
2018-12-05T21:17:18.598Z,18.50
2018-12-05T21:19:46.905Z,20.70
2018-12-05T21:22:15.037Z,22.53
2018-12-05T21:24:44.044Z,21.13
2018-12-05T21:27:12.531Z,20.97
2018-12-05T21:29:40.670Z,27.27
2018-12-05T21:32:09.269Z,19.87
2018-12-05T21:34:41.817Z,22.70
2018-12-05T21:37:10.102Z,24.97
2018-12-05T21:39:38.266Z,26.80
2018-12-05T21:42:07.050Z,19.90
2018-12-05T21:44:35.451Z,20.27
2018-12-05T21:47:04.060Z,21.53
2018-12-05T21:49:32.338Z,19.67
2018-12-05T21:52:00.883Z,21.40
2018-12-05T21:54:29.135Z,22.37
2018-12-05T21:56:57.411Z,21.37
2018-12-05T21:59:25.759Z,19.93
2018-12-05T22:01:54.448Z,20.33
2018-12-05T22:04:22.715Z,18.00
2018-12-05T22:06:51.196Z,20.13
2018-12-05T22:09:19.399Z,21.90
2018-12-05T22:11:47.824Z,20.73
2018-12-05T22:14:16.199Z,17.97
2018-12-05T22:16:44.948Z,18.83
2018-12-05T22:19:13.550Z,19.47
2018-12-05T22:21:42.030Z,20.70
2018-12-05T22:24:10.404Z,19.70
2018-12-05T22:26:39.152Z,19.87
2018-12-05T22:29:07.541Z,22.40
2018-12-05T22:31:35.777Z,18.07
2018-12-05T22:34:04.123Z,20.33
2018-12-05T22:36:32.227Z,20.00
2018-12-05T22:39:00.594Z,25.53
2018-12-05T22:41:28.694Z,31.83
2018-12-05T22:43:56.996Z,29.83
2018-12-05T22:46:25.688Z,33.67
2018-12-05T22:48:53.994Z,26.00
2018-12-05T22:51:22.838Z,19.17
2018-12-05T22:53:51.212Z,20.93
2018-12-05T22:56:19.651Z,17.10
2018-12-05T22:58:48.119Z,16.03
2018-12-05T23:01:16.811Z,16.97
2018-12-05T23:03:45.212Z,14.27
2018-12-05T23:06:13.372Z,17.47
2018-12-05T23:08:41.733Z,15.17
2018-12-05T23:11:10.096Z,13.57
2018-12-05T23:13:38.291Z,14.67
2018-12-05T23:16:20.383Z,14.10
2018-12-05T23:18:48.805Z,19.80
2018-12-05T23:21:17.068Z,20.37
2018-12-05T23:23:45.569Z,18.87
2018-12-05T23:26:13.771Z,20.00
2018-12-05T23:28:41.953Z,18.13
2018-12-05T23:31:10.334Z,19.23
2018-12-05T23:33:39.043Z,17.03
2018-12-05T23:36:07.459Z,17.67
2018-12-05T23:38:35.645Z,16.77
2018-12-05T23:41:04.198Z,17.83
2018-12-05T23:43:32.602Z,16.67
2018-12-05T23:46:01.133Z,17.23
2018-12-05T23:48:29.408Z,15.63
2018-12-05T23:50:57.811Z,16.60
2018-12-05T23:53:26.303Z,15.70
2018-12-05T23:55:54.720Z,16.73
2018-12-05T23:58:22.948Z,16.07
